createdAt,value
2023-08-15T00:01:42.556Z,22.90
2023-08-15T00:04:11.224Z,22.90
2023-08-15T00:06:39.917Z,22.84
2023-08-15T00:09:08.939Z,22.86
2023-08-15T00:11:37.618Z,22.85
2023-08-15T00:14:06.586Z,22.82
2023-08-15T00:16:35.455Z,22.80
2023-08-15T00:19:05.923Z,22.73
2023-08-15T00:21:34.623Z,22.66
2023-08-15T00:24:03.282Z,22.60
2023-08-15T00:26:32.144Z,22.57
2023-08-15T00:29:01.565Z,22.61
2023-08-15T00:31:31.323Z,22.60
2023-08-15T00:34:00.002Z,22.57
2023-08-15T00:36:31.488Z,22.48
2023-08-15T00:39:04.028Z,22.44
2023-08-15T00:41:32.900Z,22.37
2023-08-15T00:44:01.562Z,22.35
2023-08-15T00:46:33.658Z,22.27
2023-08-15T00:49:02.929Z,22.21
2023-08-15T00:51:33.908Z,22.23
2023-08-15T00:54:04.098Z,22.18
2023-08-15T00:56:33.464Z,22.17
2023-08-15T00:59:03.345Z,22.17
2023-08-15T01:01:33.585Z,22.09
2023-08-15T01:04:04.234Z,22.09
2023-08-15T01:06:34.469Z,22.08
2023-08-15T01:09:03.568Z,22.06
2023-08-15T01:11:45.261Z,21.97
2023-08-15T01:14:21.645Z,21.87
2023-08-15T01:16:53.150Z,21.87
2023-08-15T01:19:36.332Z,21.88
2023-08-15T01:22:17.281Z,21.84
2023-08-15T01:24:50.029Z,21.77
2023-08-15T01:27:21.089Z,21.74
2023-08-15T01:29:50.693Z,21.66
2023-08-15T01:32:33.648Z,21.65
2023-08-15T01:35:14.174Z,21.57
2023-08-15T01:37:50.135Z,21.51
2023-08-15T01:40:24.500Z,21.48
2023-08-15T01:42:57.054Z,21.50
2023-08-15T01:45:29.999Z,21.53
2023-08-15T01:47:59.561Z,21.48
2023-08-15T01:50:28.701Z,21.39
2023-08-15T01:52:57.446Z,21.42
2023-08-15T01:55:27.889Z,21.43
2023-08-15T01:57:56.556Z,21.40
2023-08-15T02:00:25.279Z,21.34
2023-08-15T02:02:54.076Z,21.27
2023-08-15T02:05:23.059Z,21.32
2023-08-15T02:07:53.208Z,21.29
2023-08-15T02:10:21.936Z,21.21
2023-08-15T02:12:52.174Z,21.25
2023-08-15T02:15:21.177Z,21.26
2023-08-15T02:17:49.878Z,21.24
2023-08-15T02:20:18.977Z,21.21
2023-08-15T02:22:47.738Z,21.21
2023-08-15T02:25:16.565Z,21.14
2023-08-15T02:27:45.239Z,21.09
2023-08-15T02:30:15.869Z,21.08
2023-08-15T02:32:46.563Z,21.07
2023-08-15T02:35:15.431Z,21.01
2023-08-15T02:37:44.152Z,20.98
2023-08-15T02:40:14.305Z,21.01
2023-08-15T02:42:43.019Z,21.00
2023-08-15T02:45:12.335Z,20.94
2023-08-15T02:47:42.713Z,20.92
2023-08-15T02:50:11.817Z,20.88
2023-08-15T02:52:40.756Z,20.85
2023-08-15T02:55:10.011Z,20.83
2023-08-15T02:57:39.233Z,20.78
2023-08-15T03:00:10.408Z,20.76
2023-08-15T03:02:39.309Z,20.74
2023-08-15T03:05:10.348Z,20.75
2023-08-15T03:07:39.084Z,20.76
2023-08-15T03:10:09.019Z,20.79
2023-08-15T03:12:37.764Z,20.73
2023-08-15T03:15:07.572Z,20.70
2023-08-15T03:17:36.492Z,20.67
2023-08-15T03:20:10.542Z,20.69
2023-08-15T03:22:39.430Z,20.67
2023-08-15T03:25:10.214Z,20.61
2023-08-15T03:27:38.945Z,20.61
2023-08-15T03:30:09.620Z,20.61
2023-08-15T03:32:39.029Z,20.63
2023-08-15T03:35:10.275Z,20.63
2023-08-15T03:37:42.102Z,20.57
2023-08-15T03:40:12.283Z,20.60
2023-08-15T03:42:41.071Z,20.59
2023-08-15T03:45:10.670Z,20.61
2023-08-15T03:47:39.457Z,20.64
2023-08-15T03:50:10.461Z,20.57
2023-08-15T03:52:39.138Z,20.57
2023-08-15T03:55:08.919Z,20.58
2023-08-15T03:57:37.799Z,20.55
2023-08-15T04:00:07.886Z,20.57
2023-08-15T04:02:42.363Z,20.58
2023-08-15T04:05:13.563Z,20.50
2023-08-15T04:07:43.329Z,20.52
2023-08-15T04:10:13.316Z,20.48
2023-08-15T04:12:42.480Z,20.44
2023-08-15T04:15:12.280Z,20.45
2023-08-15T04:17:41.424Z,20.49
2023-08-15T04:20:13.850Z,20.51
2023-08-15T04:22:43.136Z,20.49
2023-08-15T04:25:11.909Z,20.50
2023-08-15T04:27:40.701Z,20.47
2023-08-15T04:30:10.612Z,20.43
2023-08-15T04:32:39.331Z,20.44
2023-08-15T04:35:09.553Z,20.44
2023-08-15T04:37:41.421Z,20.37
2023-08-15T04:40:15.193Z,20.42
2023-08-15T04:42:44.386Z,20.43
2023-08-15T04:45:13.220Z,20.43
2023-08-15T04:47:42.090Z,20.38
2023-08-15T04:50:11.977Z,20.36
2023-08-15T04:52:42.453Z,20.36
2023-08-15T04:55:14.371Z,20.35
2023-08-15T04:57:43.584Z,20.35
2023-08-15T05:00:16.637Z,20.37
2023-08-15T05:02:45.414Z,20.41
2023-08-15T05:05:15.036Z,20.40
2023-08-15T05:07:45.249Z,20.40
2023-08-15T05:10:14.031Z,20.40
2023-08-15T05:12:45.570Z,20.45
2023-08-15T05:15:14.851Z,20.49
2023-08-15T05:17:45.164Z,20.52
2023-08-15T05:20:15.943Z,20.54
2023-08-15T05:22:47.097Z,20.51
2023-08-15T05:25:15.925Z,20.52
2023-08-15T05:27:48.010Z,20.55
2023-08-15T05:30:17.169Z,20.57
2023-08-15T05:32:46.472Z,20.59
2023-08-15T05:35:15.262Z,20.61
2023-08-15T05:37:45.983Z,20.66
2023-08-15T05:40:16.058Z,20.71
2023-08-15T05:42:44.887Z,20.76
2023-08-15T05:45:13.594Z,20.76
2023-08-15T05:47:42.574Z,20.78
2023-08-15T05:50:12.149Z,20.79
2023-08-15T05:52:40.855Z,20.83
2023-08-15T05:55:11.331Z,20.90
2023-08-15T06:00:42.362Z,20.99
2023-08-15T06:03:11.609Z,21.06
2023-08-15T06:05:40.580Z,21.09
2023-08-15T06:08:09.720Z,21.14
2023-08-15T06:10:39.913Z,21.22
2023-08-15T06:13:08.884Z,21.24
2023-08-15T06:15:37.603Z,21.31
2023-08-15T06:18:06.739Z,21.37
2023-08-15T06:20:35.746Z,21.40
2023-08-15T06:23:04.604Z,21.45
2023-08-15T06:25:33.365Z,21.51
2023-08-15T06:28:03.661Z,21.57
2023-08-15T06:30:32.352Z,21.63
2023-08-15T06:33:01.625Z,21.74
2023-08-15T06:35:30.380Z,21.82
2023-08-15T06:37:59.064Z,21.89
2023-08-15T06:40:28.021Z,21.99
2023-08-15T06:42:56.773Z,22.07
2023-08-15T06:45:26.897Z,22.14
2023-08-15T06:47:56.034Z,22.25
2023-08-15T06:50:24.835Z,22.36
2023-08-15T06:52:53.498Z,22.46
2023-08-15T06:55:22.554Z,22.56
2023-08-15T06:57:51.195Z,22.64
2023-08-15T07:00:21.034Z,22.69
2023-08-15T07:02:51.630Z,22.76
2023-08-15T07:05:20.578Z,22.84
2023-08-15T07:07:49.319Z,22.91
2023-08-15T07:10:18.500Z,22.99
2023-08-15T07:12:47.932Z,23.07
2023-08-15T07:15:17.222Z,23.14
2023-08-15T07:17:45.971Z,23.21
2023-08-15T07:20:16.669Z,23.33
2023-08-15T07:22:46.242Z,23.39
2023-08-15T07:25:15.875Z,23.51
2023-08-15T07:27:45.133Z,23.59
2023-08-15T07:30:17.654Z,23.67
2023-08-15T07:32:46.940Z,23.72
2023-08-15T07:35:17.343Z,23.79
2023-08-15T07:37:49.305Z,23.81
2023-08-15T07:40:23.956Z,23.72
2023-08-15T07:42:55.960Z,23.66
2023-08-15T07:45:25.228Z,23.60
2023-08-15T07:47:54.788Z,23.54
2023-08-15T07:50:28.476Z,23.59
2023-08-15T07:52:59.581Z,23.69
2023-08-15T07:55:32.952Z,23.83
2023-08-15T07:58:02.175Z,24.01
2023-08-15T08:00:31.282Z,24.12
2023-08-15T08:03:01.529Z,24.14
2023-08-15T08:05:34.242Z,24.16
2023-08-15T08:08:04.433Z,24.17
2023-08-15T08:10:33.723Z,24.17
2023-08-15T08:13:02.781Z,24.19
2023-08-15T08:15:32.919Z,24.21
2023-08-15T08:18:01.840Z,24.27
2023-08-15T08:20:32.109Z,24.38
2023-08-15T08:23:01.014Z,24.50
2023-08-15T08:25:30.565Z,24.60
2023-08-15T08:27:59.337Z,24.67
2023-08-15T08:30:30.093Z,24.71
2023-08-15T08:33:00.304Z,24.74
2023-08-15T08:35:29.735Z,24.80
2023-08-15T08:38:00.455Z,24.84
2023-08-15T08:40:30.486Z,24.83
2023-08-15T08:43:00.316Z,24.83
2023-08-15T08:45:33.160Z,24.85
2023-08-15T08:48:04.369Z,24.88
2023-08-15T08:50:34.659Z,24.92
2023-08-15T08:53:05.290Z,24.93
2023-08-15T08:55:36.041Z,24.97
2023-08-15T08:58:08.283Z,25.01
2023-08-15T09:00:38.311Z,25.06
2023-08-15T09:03:07.458Z,25.12
2023-08-15T09:05:36.874Z,25.18
2023-08-15T09:08:08.550Z,25.27
2023-08-15T09:10:37.333Z,25.46
2023-08-15T09:13:07.159Z,25.70
2023-08-15T09:15:36.588Z,25.94
2023-08-15T09:18:08.162Z,26.25
2023-08-15T09:20:48.013Z,26.57
2023-08-15T09:23:19.337Z,26.79
2023-08-15T09:25:48.806Z,26.99
2023-08-15T09:28:17.747Z,27.20
2023-08-15T09:30:54.748Z,27.40
2023-08-15T09:33:23.601Z,27.62
2023-08-15T09:35:59.056Z,27.88
2023-08-15T09:38:30.946Z,28.11
2023-08-15T09:41:01.168Z,28.36
2023-08-15T09:43:31.452Z,28.53
2023-08-15T09:46:01.968Z,28.67
2023-08-15T09:48:31.500Z,28.85
2023-08-15T09:51:01.116Z,29.11
2023-08-15T09:53:31.988Z,29.31
2023-08-15T09:56:00.715Z,29.53
2023-08-15T09:58:29.484Z,29.75
2023-08-15T10:01:00.449Z,30.00
2023-08-15T10:03:37.283Z,30.18
2023-08-15T10:06:10.754Z,30.30
2023-08-15T10:08:44.604Z,30.46
2023-08-15T10:11:13.667Z,30.60
2023-08-15T10:13:43.070Z,30.74
2023-08-15T10:16:15.114Z,30.82
2023-08-15T10:18:55.583Z,30.91
2023-08-15T10:21:24.730Z,30.99
2023-08-15T10:24:04.753Z,31.06
2023-08-15T10:26:34.018Z,31.04
2023-08-15T10:29:05.626Z,31.18
2023-08-15T10:31:40.606Z,31.28
2023-08-15T10:34:12.965Z,31.28
2023-08-15T10:36:44.265Z,31.31
2023-08-15T10:39:17.611Z,31.36
2023-08-15T10:41:46.403Z,31.41
2023-08-15T10:44:18.489Z,31.46
2023-08-15T10:46:47.706Z,31.51
2023-08-15T10:49:21.052Z,31.53
2023-08-15T10:51:49.876Z,31.64
2023-08-15T10:54:20.214Z,31.70
2023-08-15T10:56:50.238Z,31.82
2023-08-15T10:59:20.500Z,31.86
2023-08-15T11:01:49.781Z,31.93
2023-08-15T11:04:20.895Z,31.92
2023-08-15T11:06:53.656Z,31.89
2023-08-15T11:09:31.329Z,31.95
2023-08-15T11:12:08.789Z,31.99
2023-08-15T11:14:37.917Z,31.87
2023-08-15T11:17:08.227Z,31.93
2023-08-15T11:19:37.108Z,31.69
2023-08-15T11:22:06.444Z,31.74
2023-08-15T11:24:36.725Z,31.73
2023-08-15T11:27:07.910Z,31.68
2023-08-15T11:29:37.012Z,31.49
2023-08-15T11:32:07.085Z,31.55
2023-08-15T11:34:36.563Z,31.35
2023-08-15T11:37:06.979Z,31.24
2023-08-15T11:39:37.893Z,31.32
2023-08-15T11:42:07.282Z,31.39
2023-08-15T11:44:36.258Z,31.37
2023-08-15T11:47:09.102Z,31.47
2023-08-15T11:49:46.171Z,31.47
2023-08-15T11:52:15.268Z,31.42
2023-08-15T11:54:47.542Z,31.46
2023-08-15T11:57:16.511Z,31.53
2023-08-15T11:59:45.442Z,31.67
2023-08-15T12:02:14.411Z,31.73
2023-08-15T12:04:43.077Z,31.61
2023-08-15T12:07:12.137Z,31.51
2023-08-15T12:09:41.593Z,31.59
2023-08-15T12:12:21.091Z,31.72
2023-08-15T12:14:51.491Z,31.73
2023-08-15T12:17:21.612Z,31.74
2023-08-15T12:19:50.374Z,31.55
2023-08-15T12:22:19.573Z,31.58
2023-08-15T12:24:48.597Z,31.50
2023-08-15T12:27:19.737Z,31.55
2023-08-15T12:30:13.654Z,31.59
2023-08-15T12:32:37.992Z,31.57
2023-08-15T12:35:08.059Z,31.58
2023-08-15T12:37:37.370Z,31.62
2023-08-15T12:40:14.811Z,31.66
2023-08-15T12:42:52.630Z,31.62
2023-08-15T12:45:21.758Z,31.56
2023-08-15T12:47:51.079Z,31.62
2023-08-15T12:50:20.265Z,31.77
2023-08-15T12:52:49.096Z,31.86
2023-08-15T12:55:18.364Z,31.99
2023-08-15T12:57:47.210Z,32.06
2023-08-15T13:00:19.640Z,32.16
2023-08-15T13:02:48.699Z,32.16
2023-08-15T13:05:17.852Z,31.95
2023-08-15T13:07:46.840Z,31.91
2023-08-15T13:10:15.828Z,32.11
2023-08-15T13:12:44.874Z,32.30
2023-08-15T13:15:13.761Z,32.49
2023-08-15T13:17:44.997Z,32.53
2023-08-15T13:20:15.871Z,32.64
2023-08-15T13:22:44.722Z,32.82
2023-08-15T13:25:13.529Z,32.94
2023-08-15T13:27:42.222Z,32.98
2023-08-15T13:30:11.536Z,33.00
2023-08-15T13:44:13.893Z,31.71
2023-08-15T13:46:42.696Z,31.86
2023-08-15T13:49:12.710Z,32.37
2023-08-15T13:51:43.598Z,32.94
2023-08-15T13:54:13.227Z,33.52
2023-08-15T13:56:42.483Z,34.40
2023-08-15T13:59:12.656Z,35.02
2023-08-15T14:01:41.468Z,35.67
2023-08-15T14:04:13.360Z,36.02
2023-08-15T14:06:42.328Z,36.30
2023-08-15T14:09:11.064Z,36.44
2023-08-15T14:11:39.962Z,36.44
2023-08-15T14:14:08.693Z,36.71
2023-08-15T14:16:38.814Z,36.71
2023-08-15T14:19:07.874Z,36.44
2023-08-15T14:21:36.591Z,35.96
2023-08-15T14:24:05.717Z,35.26
2023-08-15T14:26:34.507Z,34.85
2023-08-15T14:29:03.224Z,34.19
2023-08-15T14:31:32.645Z,33.66
2023-08-15T14:34:02.766Z,33.26
2023-08-15T14:36:31.665Z,32.79
2023-08-15T14:39:00.404Z,32.40
2023-08-15T14:41:29.121Z,32.10
2023-08-15T14:43:57.822Z,31.76
2023-08-15T14:46:26.665Z,31.48
2023-08-15T14:48:55.444Z,31.28
2023-08-15T14:51:25.553Z,31.10
2023-08-15T14:53:54.244Z,30.89
2023-08-15T14:56:26.587Z,30.78
2023-08-15T14:58:55.560Z,30.67
2023-08-15T15:01:24.387Z,30.59
2023-08-15T15:03:53.312Z,30.52
2023-08-15T15:06:22.037Z,30.43
2023-08-15T15:08:52.207Z,30.30
2023-08-15T15:11:20.953Z,30.25
2023-08-15T15:13:49.923Z,30.16
2023-08-15T15:16:18.809Z,30.05
2023-08-15T15:18:47.463Z,29.96
2023-08-15T15:21:16.169Z,29.90
2023-08-15T15:23:44.958Z,29.83
2023-08-15T15:26:15.080Z,29.72
2023-08-15T15:28:46.281Z,29.61
2023-08-15T15:31:22.704Z,29.53
2023-08-15T15:34:04.458Z,29.43
2023-08-15T15:36:48.762Z,29.33
2023-08-15T15:39:17.709Z,29.24
2023-08-15T15:41:48.427Z,29.18
2023-08-15T15:44:17.420Z,29.11
2023-08-15T15:46:54.524Z,29.06
2023-08-15T15:49:23.698Z,28.98
2023-08-15T15:51:52.662Z,28.91
2023-08-15T15:54:21.629Z,28.81
2023-08-15T15:56:51.961Z,28.75
2023-08-15T15:59:21.772Z,28.69
2023-08-15T16:01:53.483Z,28.58
2023-08-15T16:04:22.717Z,28.55
2023-08-15T16:06:52.227Z,28.55
2023-08-15T16:09:23.552Z,28.47
2023-08-15T16:11:54.969Z,28.45
2023-08-15T16:14:25.088Z,28.38
2023-08-15T16:16:54.792Z,28.33
2023-08-15T16:19:24.474Z,28.31
2023-08-15T16:21:54.307Z,28.28
2023-08-15T16:24:24.415Z,28.27
2023-08-15T16:26:55.198Z,28.24
2023-08-15T16:29:24.323Z,28.22
2023-08-15T16:31:53.289Z,28.21
2023-08-15T16:34:22.819Z,28.17
2023-08-15T16:36:51.771Z,28.09
2023-08-15T16:39:20.561Z,28.08
2023-08-15T16:41:49.340Z,28.04
2023-08-15T16:44:20.721Z,28.02
2023-08-15T16:46:49.708Z,27.98
2023-08-15T16:49:18.791Z,27.95
2023-08-15T16:51:51.218Z,27.95
2023-08-15T16:54:20.333Z,27.86
2023-08-15T16:56:52.043Z,27.82
2023-08-15T16:59:22.293Z,27.77
2023-08-15T17:01:51.119Z,27.73
2023-08-15T17:04:19.960Z,27.71
2023-08-15T17:06:48.854Z,27.66
2023-08-15T17:09:18.385Z,27.61
2023-08-15T17:11:47.276Z,27.55
2023-08-15T17:14:17.756Z,27.51
2023-08-15T17:16:48.321Z,27.49
2023-08-15T17:19:19.377Z,27.46
2023-08-15T17:21:48.733Z,27.42
2023-08-15T17:24:18.762Z,27.39
2023-08-15T17:26:47.807Z,27.33
2023-08-15T17:29:16.609Z,27.24
2023-08-15T17:31:46.354Z,27.18
2023-08-15T17:34:16.737Z,27.07
2023-08-15T17:36:45.991Z,26.94
2023-08-15T17:39:15.109Z,26.89
2023-08-15T17:41:46.034Z,26.82
2023-08-15T17:44:15.039Z,26.77
2023-08-15T17:46:43.909Z,26.66
2023-08-15T17:49:12.756Z,26.62
2023-08-15T17:51:42.904Z,26.56
2023-08-15T17:54:11.974Z,26.53
2023-08-15T17:56:40.710Z,26.46
2023-08-15T17:59:09.594Z,26.46
2023-08-15T18:01:38.741Z,26.43
2023-08-15T18:04:08.171Z,26.33
2023-08-15T18:09:29.962Z,26.24
2023-08-15T18:12:01.295Z,26.20
2023-08-15T18:14:30.224Z,26.08
2023-08-15T18:16:59.479Z,26.06
2023-08-15T18:19:28.368Z,26.03
2023-08-15T18:22:00.293Z,26.03
2023-08-15T18:24:31.256Z,25.93
2023-08-15T18:27:00.125Z,25.92
2023-08-15T18:29:31.353Z,25.84
2023-08-15T18:32:00.511Z,25.81
2023-08-15T18:34:30.370Z,25.82
2023-08-15T18:36:59.444Z,25.76
2023-08-15T18:39:29.945Z,25.71
2023-08-15T18:41:58.708Z,25.63
2023-08-15T18:44:28.010Z,25.57
2023-08-15T18:46:57.495Z,25.53
2023-08-15T18:49:28.375Z,25.56
2023-08-15T18:51:57.136Z,25.56
2023-08-15T18:54:28.104Z,25.49
2023-08-15T18:56:58.737Z,25.47
2023-08-15T18:59:27.500Z,25.47
2023-08-15T19:01:56.463Z,25.44
2023-08-15T19:04:26.328Z,25.40
2023-08-15T19:06:55.416Z,25.38
2023-08-15T19:09:24.339Z,25.37
2023-08-15T19:11:53.035Z,25.32
2023-08-15T19:14:23.295Z,25.30
2023-08-15T19:16:52.050Z,25.30
2023-08-15T19:19:20.848Z,25.30
2023-08-15T19:21:49.795Z,25.29
2023-08-15T19:24:19.251Z,25.28
2023-08-15T19:26:48.295Z,25.24
2023-08-15T19:29:17.051Z,25.06
2023-08-15T19:31:48.296Z,25.05
2023-08-15T19:34:20.203Z,25.08
2023-08-15T19:36:49.363Z,25.02
2023-08-15T19:39:18.169Z,25.04
2023-08-15T19:41:50.538Z,25.05
2023-08-15T19:44:19.427Z,24.97
2023-08-15T19:46:49.661Z,24.97
2023-08-15T19:49:18.335Z,24.87
2023-08-15T19:51:50.396Z,24.83
2023-08-15T19:54:19.711Z,24.84
2023-08-15T19:56:48.531Z,24.88
2023-08-15T19:59:18.065Z,24.81
2023-08-15T20:01:49.358Z,24.80
2023-08-15T20:04:21.759Z,24.75
2023-08-15T20:06:51.441Z,24.74
2023-08-15T20:09:22.433Z,24.71
2023-08-15T20:11:51.652Z,24.71
2023-08-15T20:14:22.305Z,24.73
2023-08-15T20:16:52.594Z,24.71
2023-08-15T20:19:21.631Z,24.71
2023-08-15T20:21:51.684Z,24.63
2023-08-15T20:24:20.796Z,24.60
2023-08-15T20:26:49.603Z,24.60
2023-08-15T20:29:18.562Z,24.63
2023-08-15T20:31:47.348Z,24.63
2023-08-15T20:34:17.449Z,24.60
2023-08-15T20:36:46.252Z,24.57
2023-08-15T20:39:14.907Z,24.60
2023-08-15T20:41:43.713Z,24.57
2023-08-15T20:44:12.368Z,24.54
2023-08-15T20:46:42.151Z,24.54
2023-08-15T20:49:11.452Z,24.55
2023-08-15T20:51:41.719Z,24.54
2023-08-15T20:54:10.403Z,24.54
2023-08-15T20:56:41.169Z,24.48
2023-08-15T20:59:09.982Z,24.47
2023-08-15T21:01:38.874Z,24.47
2023-08-15T21:04:08.261Z,24.50
2023-08-15T21:06:37.297Z,24.50
2023-08-15T21:09:08.036Z,24.50
2023-08-15T21:11:36.864Z,24.42
2023-08-15T21:14:06.059Z,24.33
2023-08-15T21:16:35.077Z,24.29
2023-08-15T21:19:03.804Z,24.33
2023-08-15T21:21:32.433Z,24.34
2023-08-15T21:24:01.136Z,24.36
2023-08-15T21:26:31.454Z,24.36
2023-08-15T21:29:00.173Z,24.35
2023-08-15T21:31:30.096Z,24.37
2023-08-15T21:33:59.008Z,24.34
2023-08-15T21:36:27.629Z,24.27
2023-08-15T21:38:56.306Z,24.29
2023-08-15T21:41:25.534Z,24.24
2023-08-15T21:43:55.866Z,24.25
2023-08-15T21:46:24.761Z,24.24
2023-08-15T21:48:53.577Z,24.24
2023-08-15T21:51:22.271Z,24.15
2023-08-15T21:53:51.055Z,24.12
2023-08-15T21:56:19.853Z,24.12
2023-08-15T21:58:48.459Z,24.08
2023-08-15T22:01:18.528Z,24.12
2023-08-15T22:03:47.420Z,24.08
2023-08-15T22:06:16.285Z,24.04
2023-08-15T22:08:44.954Z,24.07
2023-08-15T22:11:14.372Z,24.08
2023-08-15T22:13:43.246Z,24.08
2023-08-15T22:16:12.015Z,24.06
2023-08-15T22:18:42.064Z,24.06
2023-08-15T22:21:11.183Z,24.02
2023-08-15T22:23:39.949Z,24.02
2023-08-15T22:26:08.587Z,23.97
2023-08-15T22:28:37.248Z,23.93
2023-08-15T22:31:05.945Z,23.92
2023-08-15T22:33:34.881Z,23.91
2023-08-15T22:36:05.518Z,23.88
2023-08-15T22:38:34.445Z,23.86
2023-08-15T22:41:03.217Z,23.78
2023-08-15T22:43:31.929Z,23.76
2023-08-15T22:46:00.703Z,23.72
2023-08-15T22:48:29.503Z,23.74
2023-08-15T22:50:58.368Z,23.71
2023-08-15T22:53:28.444Z,23.66
2023-08-15T22:56:01.525Z,23.57
2023-08-15T22:58:30.607Z,23.61
2023-08-15T23:00:59.430Z,23.60
2023-08-15T23:03:28.616Z,23.55
2023-08-15T23:06:03.327Z,23.58
2023-08-15T23:08:33.438Z,23.49
2023-08-15T23:11:02.190Z,23.48
2023-08-15T23:13:31.030Z,23.47
2023-08-15T23:15:59.894Z,23.39
2023-08-15T23:18:28.658Z,23.37
2023-08-15T23:20:57.502Z,23.37
2023-08-15T23:23:26.208Z,23.29
2023-08-15T23:25:56.263Z,23.28
2023-08-15T23:28:24.960Z,23.32
2023-08-15T23:30:53.880Z,23.30
2023-08-15T23:33:22.621Z,23.33
2023-08-15T23:35:51.491Z,23.26
2023-08-15T23:38:21.260Z,23.28
2023-08-15T23:40:49.959Z,23.21
2023-08-15T23:43:20.001Z,23.19
2023-08-15T23:45:49.130Z,23.19
2023-08-15T23:48:18.437Z,23.21
2023-08-15T23:50:48.213Z,23.22
2023-08-15T23:53:16.938Z,23.17
2023-08-15T23:55:45.652Z,23.12
2023-08-15T23:58:14.332Z,23.10
